createdAt,value
2017-07-31T00:01:36.220Z,22.64
2017-07-31T00:04:03.834Z,22.71
2017-07-31T00:06:31.476Z,22.65
2017-07-31T00:08:59.104Z,22.59
2017-07-31T00:11:26.711Z,22.50
2017-07-31T00:13:54.458Z,22.57
2017-07-31T00:16:22.095Z,22.42
2017-07-31T00:18:49.728Z,22.35
2017-07-31T00:21:17.342Z,22.23
2017-07-31T00:23:44.999Z,22.25
2017-07-31T00:26:13.234Z,22.25
2017-07-31T00:28:40.986Z,22.34
2017-07-31T00:31:08.727Z,22.33
2017-07-31T00:33:36.348Z,22.10
2017-07-31T00:36:03.966Z,22.11
2017-07-31T00:38:31.649Z,22.18
2017-07-31T00:40:59.535Z,22.11
2017-07-31T00:43:27.192Z,22.08
2017-07-31T00:45:54.889Z,22.15
2017-07-31T00:48:22.493Z,22.02
2017-07-31T00:50:50.254Z,22.07
2017-07-31T00:53:17.845Z,22.02
2017-07-31T00:55:45.897Z,22.03
2017-07-31T00:58:13.543Z,21.99
2017-07-31T01:00:42.555Z,22.09
2017-07-31T01:03:10.464Z,21.98
2017-07-31T01:05:38.023Z,21.97
2017-07-31T01:08:05.590Z,22.00
2017-07-31T01:10:33.394Z,21.99
2017-07-31T01:13:01.143Z,21.88
2017-07-31T01:15:28.786Z,21.91
2017-07-31T01:17:56.377Z,21.79
2017-07-31T01:20:25.592Z,21.86
2017-07-31T01:22:53.268Z,21.67
2017-07-31T01:25:20.885Z,21.53
2017-07-31T01:27:48.499Z,21.48
2017-07-31T01:30:16.102Z,21.43
2017-07-31T01:32:43.707Z,21.52
2017-07-31T01:35:11.295Z,21.42
2017-07-31T01:37:39.006Z,21.35
2017-07-31T01:40:06.939Z,21.43
2017-07-31T01:42:35.118Z,21.45
2017-07-31T01:45:02.740Z,21.60
2017-07-31T01:47:30.367Z,21.50
2017-07-31T01:49:57.992Z,21.45
2017-07-31T01:52:25.602Z,21.33
2017-07-31T01:54:53.203Z,21.29
2017-07-31T01:57:21.356Z,21.32
2017-07-31T01:59:49.338Z,21.35
2017-07-31T02:02:16.934Z,21.34
2017-07-31T02:04:44.514Z,21.31
2017-07-31T02:07:12.285Z,21.25
2017-07-31T02:09:39.853Z,21.12
2017-07-31T02:12:08.295Z,21.17
2017-07-31T02:14:35.909Z,21.20
2017-07-31T02:17:03.591Z,21.26
2017-07-31T02:19:31.214Z,21.27
2017-07-31T02:21:59.026Z,21.31
2017-07-31T02:24:26.574Z,21.37
2017-07-31T02:26:54.142Z,21.25
2017-07-31T02:29:21.751Z,21.30
2017-07-31T02:31:49.334Z,21.30
2017-07-31T02:34:16.939Z,21.25
2017-07-31T02:36:44.580Z,21.16
2017-07-31T02:39:12.190Z,21.19
2017-07-31T02:41:39.797Z,21.19
2017-07-31T02:44:07.379Z,21.14
2017-07-31T02:46:34.965Z,21.13
2017-07-31T02:49:03.448Z,21.17
2017-07-31T02:51:31.069Z,21.20
2017-07-31T02:53:58.716Z,21.18
2017-07-31T02:56:26.298Z,21.18
2017-07-31T02:58:54.115Z,21.03
2017-07-31T03:01:21.690Z,21.18
2017-07-31T03:03:49.246Z,21.17
2017-07-31T03:06:20.647Z,21.08
2017-07-31T03:08:48.300Z,21.07
2017-07-31T03:11:15.895Z,20.97
2017-07-31T03:13:43.526Z,20.98
2017-07-31T03:16:11.133Z,20.90
2017-07-31T03:18:38.719Z,20.89
2017-07-31T03:21:06.501Z,20.83
2017-07-31T03:23:34.116Z,20.85
2017-07-31T03:26:02.214Z,20.83
2017-07-31T03:28:29.785Z,20.80
2017-07-31T03:30:57.753Z,20.84
2017-07-31T03:33:25.518Z,20.84
2017-07-31T03:35:53.385Z,20.77
2017-07-31T03:38:21.186Z,20.73
2017-07-31T03:40:48.794Z,20.64
2017-07-31T03:43:16.405Z,20.59
2017-07-31T03:45:44.006Z,20.67
2017-07-31T03:48:11.586Z,20.67
2017-07-31T03:50:39.164Z,20.75
2017-07-31T03:53:06.755Z,20.80
2017-07-31T03:55:34.544Z,20.73
2017-07-31T03:58:02.325Z,20.70
2017-07-31T04:00:30.043Z,20.55
2017-07-31T04:02:57.653Z,20.45
2017-07-31T04:05:25.241Z,20.53
2017-07-31T04:07:52.997Z,20.63
2017-07-31T04:10:20.765Z,20.51
2017-07-31T04:12:48.335Z,20.66
2017-07-31T04:15:15.946Z,20.69
2017-07-31T04:17:43.487Z,20.64
2017-07-31T04:20:11.119Z,20.71
2017-07-31T04:22:38.702Z,20.71
2017-07-31T04:25:06.279Z,20.80
2017-07-31T04:27:34.084Z,20.86
2017-07-31T04:30:01.707Z,20.94
2017-07-31T04:32:29.293Z,21.06
2017-07-31T04:34:56.862Z,21.07
2017-07-31T04:37:24.466Z,21.04
2017-07-31T04:39:52.069Z,21.07
2017-07-31T04:42:19.715Z,21.15
2017-07-31T04:44:47.328Z,21.17
2017-07-31T04:47:14.918Z,21.01
2017-07-31T04:49:43.266Z,21.06
2017-07-31T04:52:10.813Z,21.04
2017-07-31T04:54:38.451Z,21.06
2017-07-31T04:57:05.985Z,21.08
2017-07-31T04:59:33.510Z,21.08
2017-07-31T05:02:02.003Z,21.20
2017-07-31T05:04:29.582Z,21.29
2017-07-31T05:06:57.107Z,21.32
2017-07-31T05:09:24.677Z,21.41
2017-07-31T05:11:52.409Z,21.38
2017-07-31T05:14:20.306Z,21.50
2017-07-31T05:16:47.915Z,21.71
2017-07-31T05:19:15.474Z,21.94
2017-07-31T05:21:43.091Z,22.13
2017-07-31T05:24:10.657Z,22.33
2017-07-31T05:26:38.202Z,22.58
2017-07-31T05:29:05.762Z,22.67
2017-07-31T05:31:33.345Z,22.67
2017-07-31T05:34:00.927Z,22.77
2017-07-31T05:36:28.506Z,22.99
2017-07-31T05:38:56.092Z,22.93
2017-07-31T05:41:23.680Z,22.81
2017-07-31T05:43:51.250Z,23.16
2017-07-31T05:46:18.859Z,23.75
2017-07-31T05:48:46.639Z,24.09
2017-07-31T05:51:14.230Z,24.32
2017-07-31T05:53:41.834Z,24.08
2017-07-31T05:56:09.428Z,24.35
2017-07-31T05:58:37.015Z,24.36
2017-07-31T06:01:04.658Z,24.49
2017-07-31T06:03:32.174Z,24.57
2017-07-31T06:05:59.753Z,24.50
2017-07-31T06:08:27.372Z,24.58
2017-07-31T06:10:54.946Z,24.55
2017-07-31T06:13:22.707Z,24.65
2017-07-31T06:15:50.305Z,25.11
2017-07-31T06:18:17.895Z,25.27
2017-07-31T06:20:45.482Z,25.59
2017-07-31T06:23:13.110Z,25.83
2017-07-31T06:25:40.715Z,25.88
2017-07-31T06:28:08.531Z,26.27
2017-07-31T06:30:36.159Z,26.08
2017-07-31T06:33:03.686Z,26.37
2017-07-31T06:35:31.311Z,26.18
2017-07-31T06:37:58.894Z,26.33
2017-07-31T06:40:26.458Z,26.61
2017-07-31T06:42:54.095Z,26.43
2017-07-31T06:45:21.668Z,26.96
2017-07-31T06:47:49.202Z,27.44
2017-07-31T06:50:16.769Z,27.78
2017-07-31T06:52:44.373Z,28.36
2017-07-31T06:55:11.986Z,27.96
2017-07-31T06:57:40.422Z,28.05
2017-07-31T07:00:08.489Z,28.12
2017-07-31T07:02:36.107Z,28.09
2017-07-31T07:05:03.657Z,28.45
2017-07-31T07:07:31.266Z,28.25
2017-07-31T07:09:58.833Z,28.95
2017-07-31T07:12:26.434Z,29.36
2017-07-31T07:14:54.053Z,29.58
2017-07-31T07:17:21.657Z,29.51
2017-07-31T07:19:49.404Z,30.18
2017-07-31T07:22:17.018Z,30.51
2017-07-31T07:24:44.613Z,30.91
2017-07-31T07:27:12.210Z,31.10
2017-07-31T07:29:39.850Z,31.43
2017-07-31T07:32:07.491Z,31.48
2017-07-31T07:34:35.081Z,31.71
2017-07-31T07:37:02.838Z,30.98
2017-07-31T07:39:30.495Z,30.74
2017-07-31T07:41:58.069Z,31.29
2017-07-31T07:44:25.859Z,31.69
2017-07-31T07:46:53.485Z,31.22
2017-07-31T07:49:21.098Z,30.56
2017-07-31T07:51:48.866Z,30.56
2017-07-31T07:54:16.468Z,31.08
2017-07-31T07:56:44.029Z,30.84
2017-07-31T07:59:11.571Z,31.26
2017-07-31T08:01:39.186Z,31.40
2017-07-31T08:04:06.782Z,31.12
2017-07-31T08:06:34.522Z,31.09
2017-07-31T08:09:02.092Z,31.28
2017-07-31T08:11:29.745Z,31.50
2017-07-31T08:13:57.492Z,31.03
2017-07-31T08:16:25.081Z,31.49
2017-07-31T08:18:53.016Z,32.15
2017-07-31T08:21:20.613Z,32.58
2017-07-31T08:23:48.689Z,33.04
2017-07-31T08:26:16.252Z,33.23
2017-07-31T08:28:43.771Z,32.22
2017-07-31T08:31:11.410Z,31.50
2017-07-31T08:33:39.299Z,31.91
2017-07-31T08:36:06.846Z,32.39
2017-07-31T08:38:34.449Z,32.72
2017-07-31T08:41:02.233Z,32.05
2017-07-31T08:43:29.789Z,31.55
2017-07-31T08:45:57.370Z,31.76
2017-07-31T08:48:24.965Z,31.57
2017-07-31T08:50:52.713Z,32.09
2017-07-31T08:53:20.315Z,31.86
2017-07-31T08:55:47.850Z,31.30
2017-07-31T08:58:15.492Z,31.67
2017-07-31T09:00:43.270Z,31.75
2017-07-31T09:03:11.112Z,31.23
2017-07-31T09:05:38.673Z,31.70
2017-07-31T09:08:06.495Z,31.67
2017-07-31T09:10:34.051Z,31.90
2017-07-31T09:13:01.809Z,32.11
2017-07-31T09:15:30.178Z,32.19
2017-07-31T09:17:57.795Z,32.15
2017-07-31T09:20:25.987Z,32.37
2017-07-31T09:22:53.587Z,32.88
2017-07-31T09:25:21.193Z,33.02
2017-07-31T09:27:48.726Z,32.17
2017-07-31T09:30:16.412Z,32.12
2017-07-31T09:32:44.001Z,32.26
2017-07-31T09:35:12.401Z,32.00
2017-07-31T09:37:40.036Z,31.58
2017-07-31T09:40:07.573Z,31.68
2017-07-31T09:42:35.152Z,31.83
2017-07-31T09:45:02.786Z,32.51
2017-07-31T09:47:31.238Z,31.92
2017-07-31T09:49:58.813Z,31.88
2017-07-31T09:52:26.396Z,31.83
2017-07-31T09:54:54.160Z,32.56
2017-07-31T09:57:21.764Z,33.08
2017-07-31T09:59:49.346Z,32.48
2017-07-31T10:02:16.918Z,32.72
2017-07-31T10:04:44.753Z,32.72
2017-07-31T10:07:12.606Z,32.68
2017-07-31T10:09:41.160Z,33.39
2017-07-31T10:12:08.701Z,32.65
2017-07-31T10:14:36.445Z,32.27
2017-07-31T10:17:04.053Z,32.60
2017-07-31T10:19:31.639Z,32.30
2017-07-31T10:21:59.186Z,32.41
2017-07-31T10:24:27.259Z,32.65
2017-07-31T10:26:54.797Z,32.93
2017-07-31T10:29:22.342Z,33.12
2017-07-31T10:31:49.994Z,32.81
2017-07-31T10:34:18.147Z,32.29
2017-07-31T10:36:45.723Z,32.26
2017-07-31T10:39:13.291Z,32.57
2017-07-31T10:41:40.889Z,32.47
2017-07-31T10:44:08.447Z,32.61
2017-07-31T10:46:36.023Z,31.97
2017-07-31T10:49:03.601Z,32.40
2017-07-31T10:51:31.342Z,32.43
2017-07-31T10:53:58.951Z,32.63
2017-07-31T10:56:26.732Z,32.89
2017-07-31T10:58:54.302Z,33.16
2017-07-31T11:01:21.907Z,33.44
2017-07-31T11:03:50.019Z,33.92
2017-07-31T11:06:17.591Z,34.09
2017-07-31T11:08:45.371Z,33.82
2017-07-31T11:11:12.905Z,33.26
2017-07-31T11:13:40.486Z,33.28
2017-07-31T11:16:08.087Z,33.11
2017-07-31T11:18:35.633Z,33.05
2017-07-31T11:21:03.161Z,33.12
2017-07-31T11:23:30.796Z,33.37
2017-07-31T11:25:58.594Z,33.51
2017-07-31T11:28:26.210Z,33.58
2017-07-31T11:30:53.774Z,33.34
2017-07-31T11:33:21.419Z,33.10
2017-07-31T11:35:49.031Z,33.34
2017-07-31T11:38:16.623Z,33.63
2017-07-31T11:40:44.172Z,33.53
2017-07-31T11:43:11.752Z,33.60
2017-07-31T11:45:39.363Z,33.32
2017-07-31T11:48:06.886Z,33.05
2017-07-31T11:50:34.473Z,33.26
2017-07-31T11:53:02.071Z,33.52
2017-07-31T11:55:29.646Z,33.18
2017-07-31T11:57:57.190Z,33.23
2017-07-31T12:00:24.779Z,33.20
2017-07-31T12:02:52.311Z,33.47
2017-07-31T12:05:20.058Z,33.27
2017-07-31T12:07:47.607Z,33.56
2017-07-31T12:10:15.158Z,33.22
2017-07-31T12:12:42.736Z,33.29
2017-07-31T12:15:10.366Z,33.47
2017-07-31T12:17:38.845Z,33.58
2017-07-31T12:20:06.405Z,33.34
2017-07-31T12:22:34.000Z,33.30
2017-07-31T12:25:01.512Z,33.53
2017-07-31T12:27:29.263Z,33.74
2017-07-31T12:29:56.886Z,33.73
2017-07-31T12:32:24.466Z,33.70
2017-07-31T12:34:52.003Z,34.07
2017-07-31T12:37:19.565Z,33.95
2017-07-31T12:39:47.142Z,34.26
2017-07-31T12:42:14.662Z,34.37
2017-07-31T12:44:42.420Z,34.41
2017-07-31T12:47:10.005Z,34.52
2017-07-31T12:49:37.912Z,34.71
2017-07-31T12:52:05.515Z,34.63
2017-07-31T12:54:33.288Z,34.63
2017-07-31T12:57:01.128Z,34.60
2017-07-31T12:59:28.928Z,34.28
2017-07-31T13:01:56.502Z,34.39
2017-07-31T13:04:24.246Z,34.57
2017-07-31T13:06:51.829Z,34.45
2017-07-31T13:09:19.425Z,34.35
2017-07-31T13:11:46.990Z,34.53
2017-07-31T13:14:14.781Z,34.47
2017-07-31T13:16:42.378Z,34.47
2017-07-31T13:19:09.935Z,34.48
2017-07-31T13:21:37.781Z,34.49
2017-07-31T13:24:05.378Z,34.41
2017-07-31T13:26:33.167Z,34.31
2017-07-31T13:29:00.902Z,33.89
2017-07-31T13:31:28.883Z,33.91
2017-07-31T13:33:56.691Z,34.01
2017-07-31T13:36:24.797Z,33.86
2017-07-31T13:38:52.406Z,33.59
2017-07-31T13:41:19.995Z,33.47
2017-07-31T13:43:47.545Z,33.39
2017-07-31T13:46:15.450Z,33.57
2017-07-31T13:48:42.989Z,33.64
2017-07-31T13:51:10.798Z,33.59
2017-07-31T13:53:38.419Z,33.38
2017-07-31T13:56:05.998Z,33.35
2017-07-31T13:58:34.186Z,33.35
2017-07-31T14:01:01.872Z,33.30
2017-07-31T14:03:29.450Z,33.15
2017-07-31T14:05:56.986Z,33.20
2017-07-31T14:08:24.609Z,33.29
2017-07-31T14:10:52.121Z,33.20
2017-07-31T14:13:19.681Z,33.02
2017-07-31T14:15:47.310Z,32.87
2017-07-31T14:18:14.899Z,32.92
2017-07-31T14:20:42.462Z,32.82
2017-07-31T14:23:10.934Z,32.85
2017-07-31T14:25:38.885Z,32.91
2017-07-31T14:28:06.604Z,32.90
2017-07-31T14:30:34.575Z,32.94
2017-07-31T14:33:02.145Z,32.86
2017-07-31T14:35:29.699Z,32.83
2017-07-31T14:37:57.327Z,32.94
2017-07-31T14:40:25.147Z,32.87
2017-07-31T14:42:52.722Z,32.82
2017-07-31T14:45:20.344Z,32.83
2017-07-31T14:47:48.093Z,32.76
2017-07-31T14:50:15.850Z,32.78
2017-07-31T14:52:43.448Z,32.72
2017-07-31T14:55:11.033Z,32.72
2017-07-31T14:57:38.801Z,32.83
2017-07-31T15:00:07.679Z,32.80
2017-07-31T15:02:35.427Z,32.73
2017-07-31T15:05:02.967Z,32.62
2017-07-31T15:07:30.545Z,32.57
2017-07-31T15:09:58.071Z,32.48
2017-07-31T15:12:25.622Z,32.53
2017-07-31T15:14:53.247Z,32.50
2017-07-31T15:17:20.845Z,32.44
2017-07-31T15:19:48.630Z,32.33
2017-07-31T15:22:16.205Z,32.23
2017-07-31T15:24:43.839Z,32.13
2017-07-31T15:27:11.446Z,32.15
2017-07-31T15:29:39.175Z,32.14
2017-07-31T15:32:06.758Z,32.13
2017-07-31T15:34:34.289Z,32.17
2017-07-31T15:37:01.815Z,32.14
2017-07-31T15:39:29.386Z,32.08
2017-07-31T15:41:56.904Z,32.22
2017-07-31T15:44:24.737Z,32.18
2017-07-31T15:46:52.324Z,32.06
2017-07-31T15:49:20.067Z,31.96
2017-07-31T15:51:47.828Z,31.92
2017-07-31T15:54:15.429Z,31.89
2017-07-31T15:56:43.913Z,31.83
2017-07-31T15:59:11.657Z,31.75
2017-07-31T16:01:39.254Z,31.66
2017-07-31T16:04:06.847Z,31.56
2017-07-31T16:06:34.427Z,31.39
2017-07-31T16:09:02.063Z,31.38
2017-07-31T16:11:29.654Z,31.20
2017-07-31T16:13:57.270Z,31.38
2017-07-31T16:16:24.853Z,31.23
2017-07-31T16:18:52.409Z,31.26
2017-07-31T16:21:19.937Z,31.15
2017-07-31T16:23:48.152Z,31.07
2017-07-31T16:26:15.705Z,30.96
2017-07-31T16:28:43.280Z,30.94
2017-07-31T16:31:10.851Z,31.01
2017-07-31T16:33:38.466Z,30.92
2017-07-31T16:36:06.026Z,30.88
2017-07-31T16:38:38.633Z,30.81
2017-07-31T16:41:06.385Z,30.80
2017-07-31T16:43:54.818Z,30.73
2017-07-31T16:46:25.449Z,30.68
2017-07-31T16:49:05.825Z,30.67
2017-07-31T16:51:33.410Z,30.64
2017-07-31T16:54:01.019Z,30.68
2017-07-31T16:56:28.584Z,30.56
2017-07-31T16:58:56.209Z,30.54
2017-07-31T17:01:23.807Z,30.33
2017-07-31T17:03:51.347Z,30.31
2017-07-31T17:06:19.203Z,30.16
2017-07-31T17:08:46.819Z,30.18
2017-07-31T17:11:14.358Z,30.15
2017-07-31T17:13:41.903Z,29.94
2017-07-31T17:16:09.473Z,29.93
2017-07-31T17:18:37.257Z,29.87
2017-07-31T17:21:04.835Z,29.71
2017-07-31T17:23:32.412Z,29.55
2017-07-31T17:26:00.360Z,29.46
2017-07-31T17:28:27.888Z,29.47
2017-07-31T17:30:55.501Z,29.41
2017-07-31T17:33:23.325Z,29.18
2017-07-31T17:35:51.127Z,29.19
2017-07-31T17:38:18.738Z,29.07
2017-07-31T17:40:46.314Z,29.01
2017-07-31T17:43:13.865Z,28.91
2017-07-31T17:45:41.445Z,28.77
2017-07-31T17:48:09.031Z,28.59
2017-07-31T17:50:36.583Z,28.74
2017-07-31T17:53:04.154Z,28.84
2017-07-31T17:55:31.734Z,28.73
2017-07-31T17:57:59.350Z,28.81
2017-07-31T18:00:27.029Z,28.82
2017-07-31T18:02:54.569Z,28.72
2017-07-31T18:05:22.156Z,28.78
2017-07-31T18:07:49.764Z,28.61
2017-07-31T18:10:17.296Z,28.56
2017-07-31T18:12:44.851Z,28.57
2017-07-31T18:15:12.433Z,28.52
2017-07-31T18:17:40.006Z,28.59
2017-07-31T18:20:07.597Z,28.62
2017-07-31T18:22:35.206Z,28.64
2017-07-31T18:25:02.731Z,28.62
2017-07-31T18:27:30.271Z,28.45
2017-07-31T18:29:58.654Z,28.38
2017-07-31T18:32:26.252Z,28.26
2017-07-31T18:34:53.827Z,28.01
2017-07-31T18:37:21.971Z,28.08
2017-07-31T18:39:49.613Z,28.02
2017-07-31T18:42:17.161Z,27.97
2017-07-31T18:44:44.946Z,27.96
2017-07-31T18:47:12.540Z,27.84
2017-07-31T18:49:40.130Z,27.78
2017-07-31T18:52:07.942Z,27.69
2017-07-31T18:54:35.995Z,27.63
2017-07-31T18:57:03.780Z,27.61
2017-07-31T18:59:31.496Z,27.52
2017-07-31T19:01:59.260Z,27.49
2017-07-31T19:04:26.944Z,27.49
2017-07-31T19:06:54.753Z,27.43
2017-07-31T19:09:22.429Z,27.40
2017-07-31T19:11:50.736Z,27.32
2017-07-31T19:14:18.841Z,27.34
2017-07-31T19:16:46.817Z,27.25
2017-07-31T19:19:15.541Z,27.09
2017-07-31T19:21:43.369Z,27.13
2017-07-31T19:24:11.525Z,27.12
2017-07-31T19:26:39.479Z,27.21
2017-07-31T19:29:07.383Z,27.03
2017-07-31T19:31:35.345Z,26.98
2017-07-31T19:34:03.000Z,27.10
2017-07-31T19:36:30.873Z,26.97
2017-07-31T19:38:58.641Z,26.90
2017-07-31T19:41:26.319Z,26.86
2017-07-31T19:43:54.026Z,26.83
2017-07-31T19:46:21.938Z,26.71
2017-07-31T19:48:49.607Z,26.69
2017-07-31T19:51:17.491Z,26.67
2017-07-31T19:53:45.368Z,26.55
2017-07-31T19:56:13.053Z,26.40
2017-07-31T19:58:40.858Z,26.34
2017-07-31T20:01:08.710Z,26.22
2017-07-31T20:03:36.507Z,26.14
2017-07-31T20:06:04.143Z,26.14
2017-07-31T20:08:32.193Z,26.13
2017-07-31T20:10:59.992Z,26.10
2017-07-31T20:13:28.534Z,26.03
2017-07-31T20:15:56.452Z,25.99
2017-07-31T20:18:24.141Z,25.91
2017-07-31T20:20:51.940Z,25.84
2017-07-31T20:23:19.583Z,25.84
2017-07-31T20:25:47.150Z,25.80
2017-07-31T20:28:15.652Z,25.71
2017-07-31T20:30:43.421Z,25.78
2017-07-31T20:33:11.071Z,25.80
2017-07-31T20:35:38.626Z,25.87
2017-07-31T20:38:06.215Z,25.95
2017-07-31T20:40:34.788Z,25.94
2017-07-31T20:43:02.428Z,25.88
2017-07-31T20:45:30.475Z,25.89
2017-07-31T20:47:58.094Z,25.85
2017-07-31T20:50:25.896Z,25.75
2017-07-31T20:52:53.550Z,25.68
2017-07-31T20:55:21.154Z,25.62
2017-07-31T20:57:48.722Z,25.66
2017-07-31T21:00:16.359Z,25.61
2017-07-31T21:02:44.704Z,25.55
2017-07-31T21:05:12.321Z,25.65
2017-07-31T21:07:39.947Z,25.50
2017-07-31T21:10:07.502Z,25.51
2017-07-31T21:12:35.136Z,25.50
2017-07-31T21:15:03.956Z,25.48
2017-07-31T21:17:31.696Z,25.37
2017-07-31T21:19:59.262Z,25.36
2017-07-31T21:22:26.845Z,25.17
2017-07-31T21:24:54.446Z,25.10
2017-07-31T21:27:22.449Z,25.09
2017-07-31T21:29:50.046Z,24.96
2017-07-31T21:32:17.622Z,24.96
2017-07-31T21:34:45.210Z,24.97
2017-07-31T21:37:12.769Z,24.94
2017-07-31T21:39:40.411Z,24.83
2017-07-31T21:42:07.971Z,24.83
2017-07-31T21:44:35.568Z,24.74
2017-07-31T21:47:03.130Z,24.71
2017-07-31T21:49:30.795Z,24.66
2017-07-31T21:51:58.419Z,24.48
2017-07-31T21:54:26.071Z,24.43
2017-07-31T21:56:53.612Z,24.30
2017-07-31T21:59:21.250Z,24.26
2017-07-31T22:01:49.673Z,24.11
2017-07-31T22:04:17.225Z,24.04
2017-07-31T22:06:44.808Z,24.00
2017-07-31T22:09:12.379Z,23.91
2017-07-31T22:11:39.922Z,23.58
2017-07-31T22:14:07.735Z,23.51
2017-07-31T22:16:41.794Z,23.36
2017-07-31T22:19:09.409Z,23.18
2017-07-31T22:21:42.649Z,23.08
2017-07-31T22:24:10.248Z,23.00
2017-07-31T22:26:37.955Z,23.00
2017-07-31T22:29:05.509Z,22.92
2017-07-31T22:31:33.086Z,22.86
2017-07-31T22:34:01.678Z,22.84
2017-07-31T22:36:29.444Z,22.84
2017-07-31T22:38:57.009Z,22.89
2017-07-31T22:41:24.626Z,22.88
2017-07-31T22:43:52.175Z,22.76
2017-07-31T22:46:19.767Z,22.69
2017-07-31T22:48:47.506Z,22.73
2017-07-31T22:51:15.253Z,22.64
2017-07-31T22:53:42.856Z,22.68
2017-07-31T22:56:10.466Z,22.72
2017-07-31T22:58:38.317Z,22.70
2017-07-31T23:01:05.935Z,22.68
2017-07-31T23:03:33.515Z,22.48
2017-07-31T23:06:01.074Z,22.39
2017-07-31T23:08:28.641Z,22.28
2017-07-31T23:10:56.239Z,22.29
2017-07-31T23:13:23.993Z,22.16
2017-07-31T23:15:51.573Z,22.10
2017-07-31T23:18:19.142Z,22.05
2017-07-31T23:20:46.691Z,21.91
2017-07-31T23:23:14.274Z,21.93
2017-07-31T23:25:42.068Z,21.81
2017-07-31T23:28:09.626Z,21.83
2017-07-31T23:30:37.258Z,21.87
2017-07-31T23:33:04.845Z,21.70
2017-07-31T23:35:32.633Z,21.68
2017-07-31T23:38:00.263Z,21.67
2017-07-31T23:40:27.838Z,21.70
2017-07-31T23:42:55.380Z,21.68
2017-07-31T23:45:23.206Z,21.73
2017-07-31T23:47:50.971Z,21.75
2017-07-31T23:50:18.490Z,21.97
2017-07-31T23:52:46.849Z,22.03
2017-07-31T23:55:14.609Z,21.94
2017-07-31T23:57:42.246Z,21.97
